Jane — WCY3322 — position and weather

sailwx.info

Track history (hours):
 
Tides and Currents Weather Stations Pressure Air Temp Water Temp Dewpoint Dewpoint Depression Visibility Wind Speed Wind Dir Waves Ship Positions

Jane

Owner: DUARD EYEMARD TOWING LLC, CUT OFF, LA. More information available from US FCC via Universal Licensing System and Coast Guard Vessel Documentation Center.

Last reported at 2017-Dec-16 05:32 UTC. Time now 2017-Dec-17 03:59 UTC.
Position N 29°32' W 090°51'.

Length 21 m; draft 2 m.

Type: Tug. MMSI: 366748260.

Date/timePositionNaut miles runAvg speedWind from/ knotsBaromVisibWave heightAir tempDewpointWater temp
2017-Dec-16 05:32N 29°32' W 090°51'0 8.5
2017-Dec-16 05:30N 29°32' W 090°50'4 8.4
2017-Dec-16 05:01N 29°32' W 090°46'3 6.3
2017-Dec-16 04:31N 29°35' W 090°43'2 4.8
2017-Dec-16 04:01N 29°37' W 090°41'1 2.9
2017-Dec-16 03:30N 29°36' W 090°40'0 0.0
2017-Dec-16 03:01N 29°36' W 090°40'2 4.2
2017-Dec-16 02:31N 29°35' W 090°38'3 5.0
2017-Dec-16 02:00N 29°34' W 090°35'8 0.3
2017-Dec-14 18:31N 29°34' W 090°44'0 0.0
2017-Dec-14 18:00N 29°34' W 090°44'3 5.2
2017-Dec-14 17:31N 29°32' W 090°46'4 0.4
2017-Dec-14 07:45N 29°32' W 090°51'2 8.1
2017-Dec-14 07:31N 29°32' W 090°49'3 6.7
2017-Dec-14 07:01N 29°34' W 090°45'2 4.8
2017-Dec-14 06:31N 29°33' W 090°42'4 8.7
2017-Dec-14 06:01N 29°29' W 090°43'10 0.4
2017-Dec-13 03:08N 29°34' W 090°33'1 3.9
2017-Dec-13 02:56N 29°34' W 090°34'2 3.7
2017-Dec-13 02:29N 29°35' W 090°36'2 3.7
2017-Dec-13 02:00N 29°35' W 090°38'2 3.8
2017-Dec-13 01:30N 29°36' W 090°40'2 3.8
2017-Dec-13 01:01N 29°37' W 090°42'2 3.3
2017-Dec-13 00:31N 29°35' W 090°43'2 4.3
2017-Dec-13 00:00N 29°33' W 090°42'0 0.0
2017-Dec-12 23:30N 29°33' W 090°42'0 0.4
2017-Dec-12 23:00N 29°33' W 090°42'1 2.1
2017-Dec-12 22:31N 29°32' W 090°42'1 2.4
2017-Dec-12 22:00N 29°31' W 090°43'1 2.6
2017-Dec-12 21:30N 29°29' W 090°43'1 2.5
2017-Dec-12 20:59N 29°28' W 090°43'2 0.1
2017-Dec-12 03:02N 29°27' W 090°43'0 8.8
2017-Dec-12 02:59N 29°27' W 090°43'4 8.6
2017-Dec-12 02:31N 29°31' W 090°42'3 6.0
2017-Dec-12 02:01N 29°34' W 090°43'4 7.3
2017-Dec-12 01:31N 29°32' W 090°47'12 0.6
2017-Dec-11 04:27N 29°37' W 090°59'9 8.0
2017-Dec-11 03:21N 29°32' W 090°51'3 8.4
2017-Dec-11 03:01N 29°32' W 090°47'3 7.0
2017-Dec-11 02:31N 29°34' W 090°44'1 2.9
2017-Dec-11 02:01N 29°34' W 090°42'0 0.1
2017-Dec-11 01:08N 29°34' W 090°42'0 0.0
2017-Dec-11 01:01N 29°34' W 090°42'0 0.9
2017-Dec-11 00:31N 29°33' W 090°42'2 4.4
2017-Dec-11 00:01N 29°31' W 090°43'5 0.3
2017-Dec-10 06:59N 29°26' W 090°43'3 6.7
2017-Dec-10 06:31N 29°29' W 090°43'4 7.1
2017-Dec-10 06:01N 29°33' W 090°42'0 0.2
2017-Dec-10 05:30N 29°33' W 090°42'0 0.0
2017-Dec-10 05:01N 29°33' W 090°42'0 0.0
2017-Dec-10 04:31N 29°33' W 090°42'0 0.0
2017-Dec-10 04:01N 29°33' W 090°42'0 0.0
2017-Dec-10 03:31N 29°33' W 090°42'0 0.0
2017-Dec-10 03:01N 29°33' W 090°42'0 0.0
2017-Dec-10 02:31N 29°33' W 090°42'0 0.0
2017-Dec-10 02:01N 29°33' W 090°42'0 0.0
2017-Dec-10 01:31N 29°33' W 090°42'0 0.0
2017-Dec-10 01:01N 29°33' W 090°42'0 0.0
2017-Dec-10 00:31N 29°33' W 090°42'0 0.0
2017-Dec-10 00:00N 29°33' W 090°42'0 0.0
2017-Dec-09 23:30N 29°33' W 090°42'0 0.0
2017-Dec-09 23:01N 29°33' W 090°42'0 0.0
2017-Dec-09 22:31N 29°33' W 090°42'0 0.0
2017-Dec-09 22:01N 29°33' W 090°42'0 0.0
2017-Dec-09 21:31N 29°33' W 090°42'0 0.0
2017-Dec-09 21:01N 29°33' W 090°42'0 0.0
2017-Dec-09 20:31N 29°33' W 090°42'0 0.0
2017-Dec-09 20:01N 29°33' W 090°42'0 0.0
2017-Dec-09 19:31N 29°33' W 090°42'0 0.0
2017-Dec-09 19:01N 29°33' W 090°42'0 0.0
2017-Dec-09 18:31N 29°33' W 090°42'0 0.0
2017-Dec-09 18:01N 29°33' W 090°42'0 0.0
2017-Dec-09 17:31N 29°33' W 090°42'0 0.0
2017-Dec-09 17:01N 29°33' W 090°42'0 0.0
2017-Dec-09 16:31N 29°33' W 090°42'0 0.0
2017-Dec-09 16:01N 29°33' W 090°42'0 0.0
2017-Dec-09 15:31N 29°33' W 090°42'0 0.0
2017-Dec-09 15:01N 29°33' W 090°42'0 0.0
2017-Dec-09 14:31N 29°33' W 090°42'0 0.0
2017-Dec-09 14:01N 29°33' W 090°42'0 0.0
2017-Dec-09 13:31N 29°33' W 090°42'0 0.0
2017-Dec-09 13:01N 29°33' W 090°42'0 0.0
2017-Dec-09 12:31N 29°33' W 090°42'0 0.0
2017-Dec-09 12:01N 29°33' W 090°42'0 0.0
2017-Dec-09 11:31N 29°33' W 090°42'0 0.0
2017-Dec-09 11:00N 29°33' W 090°42'0 0.0
2017-Dec-09 10:31N 29°33' W 090°42'0 0.0
2017-Dec-09 10:01N 29°33' W 090°42'0 0.0
2017-Dec-09 09:31N 29°33' W 090°42'0 0.1
2017-Dec-09 09:00N 29°33' W 090°42'0 0.6
2017-Dec-09 08:31N 29°33' W 090°42'1 2.7
2017-Dec-09 08:01N 29°34' W 090°43'1 2.7
2017-Dec-09 07:31N 29°34' W 090°45'2 5.0
2017-Dec-09 07:01N 29°32' W 090°47'3 5.5
2017-Dec-09 06:31N 29°32' W 090°50'4 5.5
2017-Dec-09 05:45N 29°33' W 090°54'  
Track history (hours):
 
Tides and Currents Weather Stations Pressure Air Temp Water Temp Dewpoint Dewpoint Depression Visibility Wind Speed Wind Dir Waves Ship Positions

Jane

Owner: DUARD EYEMARD TOWING LLC, CUT OFF, LA. More information available from US FCC via Universal Licensing System and Coast Guard Vessel Documentation Center.

Last reported at 2017-Dec-16 05:32 UTC. Time now 2017-Dec-17 03:59 UTC.
Position N 29°32' W 090°51'.

Length 21 m; draft 2 m.

Type: Tug. MMSI: 366748260.

Date/timePositionNaut miles runAvg speedWind from/ knotsBaromVisibWave heightAir tempDewpointWater temp
2017-Dec-16 05:32N 29°32' W 090°51'0 8.5
2017-Dec-16 05:30N 29°32' W 090°50'4 8.4
2017-Dec-16 05:01N 29°32' W 090°46'3 6.3
2017-Dec-16 04:31N 29°35' W 090°43'2 4.8
2017-Dec-16 04:01N 29°37' W 090°41'1 2.9
2017-Dec-16 03:30N 29°36' W 090°40'0 0.0
2017-Dec-16 03:01N 29°36' W 090°40'2 4.2
2017-Dec-16 02:31N 29°35' W 090°38'3 5.0
2017-Dec-16 02:00N 29°34' W 090°35'8 0.3
2017-Dec-14 18:31N 29°34' W 090°44'0 0.0
2017-Dec-14 18:00N 29°34' W 090°44'3 5.2
2017-Dec-14 17:31N 29°32' W 090°46'4 0.4
2017-Dec-14 07:45N 29°32' W 090°51'2 8.1
2017-Dec-14 07:31N 29°32' W 090°49'3 6.7
2017-Dec-14 07:01N 29°34' W 090°45'2 4.8
2017-Dec-14 06:31N 29°33' W 090°42'4 8.7
2017-Dec-14 06:01N 29°29' W 090°43'10 0.4
2017-Dec-13 03:08N 29°34' W 090°33'1 3.9
2017-Dec-13 02:56N 29°34' W 090°34'2 3.7
2017-Dec-13 02:29N 29°35' W 090°36'2 3.7
2017-Dec-13 02:00N 29°35' W 090°38'2 3.8
2017-Dec-13 01:30N 29°36' W 090°40'2 3.8
2017-Dec-13 01:01N 29°37' W 090°42'2 3.3
2017-Dec-13 00:31N 29°35' W 090°43'2 4.3
2017-Dec-13 00:00N 29°33' W 090°42'0 0.0
2017-Dec-12 23:30N 29°33' W 090°42'0 0.4
2017-Dec-12 23:00N 29°33' W 090°42'1 2.1
2017-Dec-12 22:31N 29°32' W 090°42'1 2.4
2017-Dec-12 22:00N 29°31' W 090°43'1 2.6
2017-Dec-12 21:30N 29°29' W 090°43'1 2.5
2017-Dec-12 20:59N 29°28' W 090°43'2 0.1
2017-Dec-12 03:02N 29°27' W 090°43'0 8.8
2017-Dec-12 02:59N 29°27' W 090°43'4 8.6
2017-Dec-12 02:31N 29°31' W 090°42'3 6.0
2017-Dec-12 02:01N 29°34' W 090°43'4 7.3
2017-Dec-12 01:31N 29°32' W 090°47'12 0.6
2017-Dec-11 04:27N 29°37' W 090°59'9 8.0
2017-Dec-11 03:21N 29°32' W 090°51'3 8.4
2017-Dec-11 03:01N 29°32' W 090°47'3 7.0
2017-Dec-11 02:31N 29°34' W 090°44'1 2.9
2017-Dec-11 02:01N 29°34' W 090°42'0 0.1
2017-Dec-11 01:08N 29°34' W 090°42'0 0.0
2017-Dec-11 01:01N 29°34' W 090°42'0 0.9
2017-Dec-11 00:31N 29°33' W 090°42'2 4.4
2017-Dec-11 00:01N 29°31' W 090°43'5 0.3
2017-Dec-10 06:59N 29°26' W 090°43'3 6.7
2017-Dec-10 06:31N 29°29' W 090°43'4 7.1
2017-Dec-10 06:01N 29°33' W 090°42'0 0.2
2017-Dec-10 05:30N 29°33' W 090°42'0 0.0
2017-Dec-10 05:01N 29°33' W 090°42'0 0.0
2017-Dec-10 04:31N 29°33' W 090°42'0 0.0
2017-Dec-10 04:01N 29°33' W 090°42'0 0.0
2017-Dec-10 03:31N 29°33' W 090°42'0 0.0
2017-Dec-10 03:01N 29°33' W 090°42'0 0.0
2017-Dec-10 02:31N 29°33' W 090°42'0 0.0
2017-Dec-10 02:01N 29°33' W 090°42'0 0.0
2017-Dec-10 01:31N 29°33' W 090°42'0 0.0
2017-Dec-10 01:01N 29°33' W 090°42'0 0.0
2017-Dec-10 00:31N 29°33' W 090°42'0 0.0
2017-Dec-10 00:00N 29°33' W 090°42'0 0.0
2017-Dec-09 23:30N 29°33' W 090°42'0 0.0
2017-Dec-09 23:01N 29°33' W 090°42'0 0.0
2017-Dec-09 22:31N 29°33' W 090°42'0 0.0
2017-Dec-09 22:01N 29°33' W 090°42'0 0.0
2017-Dec-09 21:31N 29°33' W 090°42'0 0.0
2017-Dec-09 21:01N 29°33' W 090°42'0 0.0
2017-Dec-09 20:31N 29°33' W 090°42'0 0.0
2017-Dec-09 20:01N 29°33' W 090°42'0 0.0
2017-Dec-09 19:31N 29°33' W 090°42'0 0.0
2017-Dec-09 19:01N 29°33' W 090°42'0 0.0
2017-Dec-09 18:31N 29°33' W 090°42'0 0.0
2017-Dec-09 18:01N 29°33' W 090°42'0 0.0
2017-Dec-09 17:31N 29°33' W 090°42'0 0.0
2017-Dec-09 17:01N 29°33' W 090°42'0 0.0
2017-Dec-09 16:31N 29°33' W 090°42'0 0.0
2017-Dec-09 16:01N 29°33' W 090°42'0 0.0
2017-Dec-09 15:31N 29°33' W 090°42'0 0.0
2017-Dec-09 15:01N 29°33' W 090°42'0 0.0
2017-Dec-09 14:31N 29°33' W 090°42'0 0.0
2017-Dec-09 14:01N 29°33' W 090°42'0 0.0
2017-Dec-09 13:31N 29°33' W 090°42'0 0.0
2017-Dec-09 13:01N 29°33' W 090°42'0 0.0
2017-Dec-09 12:31N 29°33' W 090°42'0 0.0
2017-Dec-09 12:01N 29°33' W 090°42'0 0.0
2017-Dec-09 11:31N 29°33' W 090°42'0 0.0
2017-Dec-09 11:00N 29°33' W 090°42'0 0.0
2017-Dec-09 10:31N 29°33' W 090°42'0 0.0
2017-Dec-09 10:01N 29°33' W 090°42'0 0.0
2017-Dec-09 09:31N 29°33' W 090°42'0 0.1
2017-Dec-09 09:00N 29°33' W 090°42'0 0.6
2017-Dec-09 08:31N 29°33' W 090°42'1 2.7
2017-Dec-09 08:01N 29°34' W 090°43'1 2.7
2017-Dec-09 07:31N 29°34' W 090°45'2 5.0
2017-Dec-09 07:01N 29°32' W 090°47'3 5.5
2017-Dec-09 06:31N 29°32' W 090°50'4 5.5
2017-Dec-09 05:45N 29°33' W 090°54'  

Dump ship's entire track history